Latest Weather Observations for Mount Crawford

IDS60901

Issued at 5:01 pm CST Friday 17 August 2018 (issued every 10 minutes, with the page automatically refreshed every 10 minutes)

About weather observations | Map of Adelaide area stations | Latest observations for Adelaide area | Other Formats
Station Details ID: 023878 Name: MOUNT CRAWFORD AWS Lat: -34.73 Lon: 138.93 Height: 525.0 m
Data from the previous 72 hours. | See also: Recent months at Mount Crawford
Date/Time
CST
Temp
°C
App
Temp
°C
Dew
Point
°C
Rel
Hum
%
Delta-T
°C
Wind Press
QNH
hPa
Press
MSL
hPa
Rain since
9am
mm
Dir  Spd
km/h
Gust
km/h
Spd
kts
Gust
kts
17/05:00pm 11.2 3.2 5.7 69 2.6 WNW 37 50 20 27 1010.3 1010.5 0.0
17/04:34pm 11.5 4.6 6.4 71 2.5 WNW 32 50 17 27 1010.4 1010.6 0.0
17/04:30pm 11.4 3.9 6.5 72 2.4 WNW 35 50 19 27 1010.4 1010.6 0.0
17/04:07pm 11.5 4.3 6.0 69 2.6 WNW 33 54 18 29 1010.3 1010.5 0.0
17/04:00pm 11.6 4.5 6.3 70 2.6 WNW 33 48 18 26 1010.5 1010.7 0.0
17/03:31pm 11.4 4.2 5.9 69 2.6 WNW 33 52 18 28 1010.7 1010.9 0.0
17/03:30pm 11.5 3.9 6.0 69 2.7 WNW 35 52 19 28 1010.7 1010.9 0.0
17/03:00pm 12.0 4.5 6.3 68 2.8 WNW 35 54 19 29 1010.6 1010.8 0.0
17/02:31pm 12.0 4.6 6.9 71 2.5 WNW 35 54 19 29 1010.8 1011.0 0.0
17/02:30pm 12.0 4.2 6.7 70 2.6 NW 37 54 20 29 1010.7 1010.9 0.0
17/02:21pm 11.4 4.8 5.9 69 2.6 WNW 30 52 16 28 1010.8 1011.0 0.0
17/02:00pm 10.5 4.6 7.4 81 1.5 WNW 28 41 15 22 1011.4 1011.6 0.0
17/01:31pm 10.0 4.1 7.6 85 1.2 NW 28 48 15 26 1011.6 1011.8 0.0
17/01:30pm 9.9 4.0 7.3 84 1.3 NW 28 43 15 23 1011.7 1011.9 0.0
17/01:00pm 9.2 3.8 7.8 91 0.7 NW 26 41 14 22 1012.4 1012.6 0.0
17/12:30pm 9.1 4.4 7.9 92 0.6 NW 22 35 12 19 1012.9 1013.2 0.0
17/12:00pm 8.7 4.0 7.9 95 0.4 NW 22 35 12 19 1013.5 1013.7 0.0
17/11:30am 8.5 4.4 8.5 100 0.0 NW 20 41 11 22 1014.0 1014.2 0.0
17/11:00am 7.8 3.5 7.8 100 0.0 NNW 20 32 11 17 1014.3 1014.5 0.0
17/10:30am 7.7 3.6 7.7 100 0.0 NW 19 28 10 15 1014.6 1014.9 0.0
17/10:00am 7.2 2.4 7.2 100 0.0 NNW 22 32 12 17 1014.7 1015.0 0.0
17/09:30am 6.5 1.1 6.5 100 0.0 NNW 24 35 13 19 1014.9 1015.2 0.0
17/09:00am 6.6 0.9 6.6 100 0.0 NW 26 39 14 21 1015.2 1015.4 0.6
17/08:30am 6.3 0.1 6.3 100 0.0 NW 28 37 15 20 1014.7 1015.0 0.6
17/08:00am 5.7 -1.4 5.7 100 0.0 WNW 32 43 17 23 1014.0 1014.2 0.6
17/07:30am 5.5 -2.2 5.5 100 0.0 WNW 35 46 19 25 1013.8 1014.0 0.6
17/07:00am 5.4 -2.7 5.4 100 0.0 WNW 37 52 20 28 1013.2 1013.4 0.4
17/06:30am 5.3 -2.8 5.3 100 0.0 WNW 37 50 20 27 1012.9 1013.2 0.4
17/06:00am 5.6 -1.5 5.6 100 0.0 WNW 32 44 17 24 1013.1 1013.3 0.4
17/05:30am 5.3 0.4 5.3 100 0.0 NW 20 32 11 17 1013.6 1013.8 0.4
17/05:00am 5.4 -0.2 5.4 100 0.0 WNW 24 35 13 19 1013.7 1013.9 0.4
17/04:30am 5.3 -0.3 5.3 100 0.0 WNW 24 39 13 21 1013.8 1014.0 0.4
17/04:00am 5.2 -1.2 5.2 100 0.0 WNW 28 37 15 20 1013.7 1013.9 0.4
17/03:30am 4.5 -1.3 4.5 100 0.0 WNW 24 33 13 18 1013.9 1014.1 0.4
17/03:00am 4.4 -0.6 4.4 100 0.0 WNW 20 28 11 15 1014.1 1014.3 0.4
17/02:30am 4.4 -0.6 4.4 100 0.0 NW 20 28 11 15 1014.4 1014.7 0.2
17/02:00am 4.3 -0.6 4.3 100 0.0 NW 19 24 10 13 1014.6 1014.9 0.2
17/01:30am 4.5 -0.5 4.5 100 0.0 WNW 20 24 11 13 1014.7 1015.0 0.2
17/01:00am 4.5 -0.5 4.5 100 0.0 WNW 20 30 11 16 1014.7 1015.0 0.2
17/12:30am 4.7 -0.3 4.7 100 0.0 WNW 20 30 11 16 1014.7 1015.0 0.2
17/12:00am 5.2 0.3 5.2 100 0.0 NW 20 30 11 16 1014.8 1015.1 0.2
 
Date/Time
CST
Temp
°C
App
Temp
°C
Dew
Point
°C
Rel
Hum
%
Delta-T
°C
Wind Press
QNH
hPa
Press
MSL
hPa
Rain since
9am
mm
Dir  Spd
km/h
Gust
km/h
Spd
kts
Gust
kts
16/11:30pm 5.6 0.4 5.6 100 0.0 WNW 22 32 12 17 1014.9 1015.2 0.2
16/11:00pm 5.4 0.6 5.4 100 0.0 WNW 20 26 11 14 1015.1 1015.3 0.2
16/10:30pm 5.5 0.9 5.5 100 0.0 WNW 19 26 10 14 1015.3 1015.5 0.2
16/10:00pm 5.7 1.1 5.6 99 0.0 WNW 19 24 10 13 1015.5 1015.7 0.2
16/09:30pm 5.6 0.9 5.2 97 0.2 WNW 19 24 10 13 1015.5 1015.7 0.2
16/09:00pm 5.4 1.0 5.0 97 0.2 WNW 17 20 9 11 1015.5 1015.7 0.2
16/08:30pm 5.4 1.1 5.3 99 0.0 W 17 20 9 11 1015.4 1015.6 0.2
16/08:00pm 5.5 1.6 5.2 98 0.1 WNW 15 19 8 10 1015.4 1015.6 0.2
16/07:30pm 5.7 2.5 5.0 95 0.3 WNW 11 13 6 7 1015.4 1015.6 0.2
16/07:00pm 6.1 3.3 5.1 93 0.5 WNW 9 13 5 7 1015.2 1015.4 0.2
16/06:30pm 6.6 3.5 5.4 92 0.5 W 11 13 6 7 1015.3 1015.5 0.2
16/06:00pm 6.6 3.0 5.1 90 0.7 W 13 20 7 11 1015.2 1015.4 0.2
16/05:30pm 6.9 2.9 4.7 86 1.0 W 15 20 8 11 1014.9 1015.2 0.2
16/05:00pm 7.5 4.0 5.3 86 1.0 W 13 19 7 10 1014.9 1015.2 0.2
16/04:30pm 7.1 2.5 5.6 90 0.7 WSW 19 28 10 15 1014.8 1015.1 0.2
16/04:00pm 7.1 2.5 5.4 89 0.8 WNW 19 26 10 14 1014.7 1015.0 0.2
16/03:30pm 7.4 1.1 3.8 78 1.6 W 26 35 14 19 1014.7 1015.0 0.0
16/03:00pm 8.5 2.4 2.7 67 2.5 W 24 33 13 18 1014.9 1015.2 0.0
16/02:30pm 9.4 4.5 4.0 69 2.4 WNW 19 32 10 17 1014.9 1015.2 0.0
16/02:00pm 8.8 2.7 3.0 67 2.6 W 24 37 13 20 1015.1 1015.3 0.0
16/01:30pm 9.0 3.7 2.8 65 2.7 W 20 32 11 17 1015.2 1015.4 0.0
16/01:00pm 8.7 4.3 4.7 76 1.8 WSW 17 24 9 13 1015.3 1015.5 0.0
16/12:30pm 7.5 3.9 4.8 83 1.2 SW 13 20 7 11 1015.8 1016.0 0.0
16/12:00pm 8.8 3.2 3.6 70 2.3 WNW 22 37 12 20 1015.9 1016.1 0.0
16/11:30am 8.1 3.4 5.0 81 1.4 W 19 28 10 15 1016.3 1016.6 0.0
16/11:00am 7.1 2.9 5.9 92 0.6 WNW 17 24 9 13 1016.5 1016.8 0.0
16/10:30am 6.9 3.3 6.9 100 0.0 WNW 15 22 8 12 1016.6 1016.9 0.0
16/10:00am 6.1 2.7 6.1 100 0.0 WNW 13 20 7 11 1016.7 1017.0 0.0
16/09:30am 6.3 3.7 6.3 100 0.0 WNW 9 13 5 7 1016.6 1016.9 0.0
16/09:00am 5.6 2.8 5.3 98 0.1 W 9 15 5 8 1016.5 1016.8 1.2
16/08:30am 5.6 - - - - NW 11 17 6 9 1016.2 1016.5 0.4
16/08:00am 5.3 - - - - NW 9 13 5 7 1015.8 1016.0 0.4
16/07:30am 4.9 - - - - WNW 11 15 6 8 1015.6 1015.8 0.4
16/07:00am 5.0 - - - - NW 11 17 6 9 1015.2 1015.4 0.4
16/06:30am 5.3 - - - - WNW 13 17 7 9 1014.9 1015.2 0.4
16/06:00am 5.4 - - - - WNW 13 20 7 11 1014.7 1015.0 0.4
16/05:30am 5.5 - - - - W 17 22 9 12 1014.7 1015.0 0.4
16/05:00am 5.6 - - - - W 15 22 8 12 1014.4 1014.7 0.4
16/04:30am 5.5 - - - - WNW 13 19 7 10 1014.5 1014.8 0.4
16/04:00am 5.4 - - - - W 17 24 9 13 1014.3 1014.5 0.4
16/03:30am 5.5 - - - - W 17 20 9 11 1014.1 1014.3 0.4
16/03:00am 5.8 - - - - W 19 26 10 14 1014.3 1014.5 0.4
16/02:30am 5.7 - - - - W 15 20 8 11 1014.4 1014.7 0.4
16/02:00am 5.8 - - - - W 15 19 8 10 1014.6 1014.9 0.4
16/01:30am 6.0 - - - - W 19 24 10 13 1014.5 1014.8 0.4
16/01:00am 6.2 - - - - W 19 28 10 15 1014.4 1014.7 0.4
16/12:30am 5.9 - - - - W 19 26 10 14 1014.3 1014.5 0.4
16/12:00am 6.0 - - - - W 20 28 11 15 1014.2 1014.4 0.4
 
Date/Time
CST
Temp
°C
App
Temp
°C
Dew
Point
°C
Rel
Hum
%
Delta-T
°C
Wind Press
QNH
hPa
Press
MSL
hPa
Rain since
9am
mm
Dir  Spd
km/h
Gust
km/h
Spd
kts
Gust
kts
15/11:30pm 6.1 - - - - W 19 26 10 14 1014.3 1014.5 0.4
15/11:00pm 6.3 - - - - W 22 32 12 17 1014.3 1014.5 0.4
15/10:30pm 6.2 - - - - W 22 30 12 16 1014.4 1014.7 0.2
15/10:00pm 6.3 - - - - W 24 35 13 19 1014.4 1014.7 0.2
15/09:30pm 6.8 - - - - W 22 28 12 15 1014.1 1014.3 0.2
15/09:00pm 6.7 - - - - W 22 32 12 17 1013.8 1014.0 0.2
15/08:30pm 6.7 - - - - W 24 35 13 19 1013.8 1014.0 0.2
15/08:00pm 6.8 - - - - W 22 33 12 18 1013.8 1014.0 0.2
15/07:30pm 6.8 - - - - W 24 35 13 19 1013.6 1013.8 0.2
15/07:00pm 6.9 - - - - W 24 39 13 21 1013.3 1013.5 0.2
15/06:40pm 7.1 - - - - W 32 50 17 27 1012.6 1012.8 0.2
15/06:30pm 7.4 - - - - W 26 39 14 21 1012.5 1012.7 0.2
15/06:00pm 7.5 - - - - W 24 35 13 19 1012.2 1012.4 0.2
15/05:30pm 8.6 - - - - W 39 59 21 32 1011.4 1011.6 0.2
15/05:04pm 8.9 - - - - W 43 61 23 33 1011.4 1011.6 0.2
15/05:00pm 9.0 - - - - W 43 59 23 32 1011.4 1011.6 0.2
15/04:47pm 9.2 - - - - W 32 50 17 27 1011.5 1011.7 0.2
15/04:30pm 9.6 - - - - W 33 46 18 25 1011.5 1011.7 0.2
15/04:01pm 8.4 - - - - W 33 52 18 28 1011.4 1011.6 0.2
15/04:00pm 8.3 - - - - W 35 52 19 28 1011.3 1011.5 0.2
15/03:30pm 9.8 - - - - W 35 57 19 31 1011.1 1011.2 0.0
15/03:00pm 8.5 - - - - W 39 57 21 31 1010.6 1010.8 0.0
15/02:30pm 9.4 - - - - W 46 65 25 35 1010.2 1010.4 0.0
15/02:00pm 10.8 - - - - W 46 67 25 36 1009.8 1010.0 0.0
15/01:30pm 12.1 - - - - W 44 65 24 35 1009.9 1010.1 0.0
15/01:00pm 11.9 - - - - W 50 76 27 41 1009.7 1009.9 0.0
15/12:30pm 12.0 - - - - W 50 76 27 41 1010.3 1010.5 0.0
15/12:00pm 11.3 - - - - WNW 50 72 27 39 1010.3 1010.5 0.0
15/11:33am 11.3 - - - - WNW 43 61 23 33 1010.6 1010.8 0.0
15/11:30am 11.3 - - - - WNW 41 57 22 31 1010.8 1011.0 0.0
15/11:07am 11.1 - - - - WNW 44 63 24 34 1010.9 1011.1 0.0
15/11:00am 11.1 - - - - WNW 44 59 24 32 1011.1 1011.2 0.0
15/10:39am 10.7 - - - - WNW 39 57 21 31 1010.9 1011.1 0.0
15/10:30am 10.6 - - - - WNW 33 50 18 27 1011.3 1011.5 0.0
15/10:00am 9.9 - - - - WNW 37 56 20 30 1011.4 1011.6 0.0
15/09:49am 9.9 - - - - WNW 35 54 19 29 1011.6 1011.8 0.0
15/09:30am 9.6 - - - - WNW 35 48 19 26 1011.8 1012.0 0.0
15/09:00am 9.2 - - - - WNW 32 46 17 25 1011.9 1012.1 0.0
15/08:45am 9.1 2.8 9.1 100 0.0 WNW 32 50 17 27 1011.8 1012.0 0.0
15/08:30am 8.8 2.8 8.8 100 0.0 WNW 30 43 16 23 1012.0 1012.2 0.0
15/08:00am 8.6 2.6 8.6 100 0.0 WNW 30 44 16 24 1011.8 1012.0 0.0
15/07:30am 8.4 2.0 8.4 100 0.0 WNW 32 46 17 25 1011.5 1011.7 0.0
15/07:00am 9.1 2.8 9.1 100 0.0 WNW 32 46 17 25 1011.2 1011.4 0.0
15/06:38am 9.2 3.0 9.2 100 0.0 NW 32 50 17 27 1011.2 1011.4 0.0
15/06:30am 9.3 3.1 9.3 100 0.0 WNW 32 46 17 25 1011.3 1011.5 0.0
15/06:12am 9.3 3.1 9.3 100 0.0 WNW 32 50 17 27 1011.2 1011.4 0.0
15/06:00am 9.3 2.9 9.3 100 0.0 WNW 33 48 18 26 1011.2 1011.4 0.0
15/05:43am 9.4 3.2 9.4 100 0.0 WNW 32 50 17 27 1011.3 1011.5 0.0
15/05:30am 9.5 3.3 9.5 100 0.0 WNW 32 44 17 24 1011.3 1011.5 0.0
15/05:03am 9.7 4.0 9.7 100 0.0 WNW 30 50 16 27 1011.5 1011.7 0.0
15/05:00am 9.5 3.7 9.5 100 0.0 WNW 30 43 16 23 1011.6 1011.8 0.0
15/04:30am 9.8 4.5 9.8 100 0.0 WNW 28 39 15 21 1011.6 1011.8 0.0
15/04:00am 9.8 3.7 9.8 100 0.0 WNW 32 46 17 25 1011.7 1011.9 0.0
15/03:30am 9.9 3.7 9.9 100 0.0 WNW 33 46 18 25 1011.7 1011.9 0.0
15/03:00am 10.1 3.1 10.1 100 0.0 WNW 37 52 20 28 1011.6 1011.8 0.0
15/02:30am 10.2 2.9 10.2 100 0.0 WNW 39 63 21 34 1011.6 1011.8 0.0
15/02:00am 10.7 3.5 10.7 100 0.0 WNW 39 61 21 33 1011.7 1011.9 0.0
15/01:30am 11.1 4.1 11.1 100 0.0 NW 39 63 21 34 1011.8 1012.0 0.0
15/01:00am 11.5 4.2 11.5 100 0.0 NW 41 69 22 37 1011.8 1012.0 0.0
15/12:30am 11.4 4.4 11.4 100 0.0 NW 39 67 21 36 1012.1 1012.3 0.0
15/12:00am 11.5 4.6 11.5 100 0.0 NW 39 63 21 34 1012.3 1012.5 0.0
 
Date/Time
CST
Temp
°C
App
Temp
°C
Dew
Point
°C
Rel
Hum
%
Delta-T
°C
Wind Press
QNH
hPa
Press
MSL
hPa
Rain since
9am
mm
Dir  Spd
km/h
Gust
km/h
Spd
kts
Gust
kts
14/11:45pm 11.3 4.7 11.3 100 0.0 NW 37 59 20 32 1012.4 1012.6 0.0
14/11:30pm 11.2 4.2 11.2 100 0.0 NW 39 54 21 29 1012.5 1012.7 0.0
14/11:00pm 11.2 4.6 11.2 100 0.0 NW 37 56 20 30 1012.8 1013.1 0.0
14/10:33pm 11.4 5.2 11.4 100 0.0 NW 35 54 19 29 1013.4 1013.6 0.0
14/10:30pm 11.5 4.9 11.5 100 0.0 NW 37 54 20 29 1013.3 1013.5 0.0
14/10:02pm 11.6 5.1 11.6 100 0.0 NW 37 65 20 35 1013.6 1013.8 0.0
14/10:00pm 11.6 4.7 11.6 100 0.0 NW 39 54 21 29 1013.6 1013.8 0.0
14/09:30pm 11.7 5.2 11.7 100 0.0 NW 37 56 20 30 1013.7 1013.9 0.0
14/09:08pm 11.5 5.3 11.5 100 0.0 NW 35 61 19 33 1013.8 1014.0 0.0
14/09:00pm 11.2 4.9 11.2 100 0.0 NW 35 52 19 28 1013.8 1014.0 0.0
14/08:30pm 11.1 5.2 11.1 100 0.0 NW 33 54 18 29 1014.1 1014.3 0.0
14/08:02pm 11.4 4.8 11.4 100 0.0 NNW 37 56 20 30 1014.0 1014.2 0.0
14/08:00pm 11.1 4.4 11.1 100 0.0 NNW 37 52 20 28 1014.1 1014.3 0.0
14/07:30pm 11.5 5.3 11.5 100 0.0 NNW 35 54 19 29 1014.4 1014.7 0.0
14/07:18pm 11.4 5.6 11.4 100 0.0 NNW 33 52 18 28 1014.7 1015.0 0.0
14/07:00pm 11.4 5.6 11.4 100 0.0 NNW 33 46 18 25 1014.9 1015.2 0.0
14/06:30pm 11.7 6.0 11.7 100 0.0 NNW 33 43 18 23 1015.1 1015.3 0.0
14/06:00pm 11.6 7.2 11.6 100 0.0 NW 26 41 14 22 1015.3 1015.5 0.0
14/05:30pm 11.9 7.2 11.9 100 0.0 NNW 28 37 15 20 1015.4 1015.6 0.0

Latest Capital City Observations: Canberra | Sydney | Melbourne | Brisbane | Adelaide | Perth | Hobart | Darwin

Other Formats:

Comma delimited format used in spreadsheet applications
http://www.bom.gov.au/fwo/IDS60901/IDS60901.94678.axf

JavaScript Object Notation format (JSON) in row-major order
http://www.bom.gov.au/fwo/IDS60901/IDS60901.94678.json